This is the latest recevied weather packets stored in our database for station/object W0CHP-13. If no packets are shown the sender has not sent any weather packets the latest 10 day(s).
| Time | Temp. | Humidity | Pressure | Rain* | Wind** | Luminosity | Snow |
|---|---|---|---|---|---|---|---|
| 1777641436 | 8.89° C | 55% | 1016.5 hPa | 0 mm | - | 175 W/m² | - |
| 1777640838 | 8.33° C | 55% | 1016.5 hPa | 0 mm | - | 94 W/m² | - |
| 1777640236 | 7.22° C | 63% | 1016.5 hPa | 0 mm | - | 97 W/m² | - |
| 1777639638 | 5.56° C | 65% | 1016.3 hPa | 0 mm | - | 67 W/m² | - |
| 1777639037 | 5° C | 67% | 1016.5 hPa | 0 mm | - | 41 W/m² | - |
| 1777638435 | 3.89° C | 70% | 1016.3 hPa | 0 mm | - | 37 W/m² | - |
| 1777637837 | 3.33° C | 71% | 1016.1 hPa | 0 mm | - | 34 W/m² | - |
| 1777637236 | 2.78° C | 70% | 1015.9 hPa | 0 mm | - | 30 W/m² | - |
| 1777636638 | 2.22° C | 69% | 1015.9 hPa | 0 mm | - | 25 W/m² | - |
| 1777636036 | 2.22° C | 69% | 1015.8 hPa | 0 mm | - | 20 W/m² | - |
| 1777635438 | 2.22° C | 69% | 1015.8 hPa | 0 mm | - | 16 W/m² | - |
| 1777634836 | 2.22° C | 69% | 1015.8 hPa | 0 mm | - | 14 W/m² | - |
| 1777634239 | 2.22° C | 67% | 1015.8 hPa | 0 mm | - | 9 W/m² | - |
| 1777633637 | 2.22° C | 67% | 1015.8 hPa | 0 mm | - | 5 W/m² | - |
| 1777633035 | 2.78° C | 67% | 1015.8 hPa | 0 mm | - | 2 W/m² | - |
| 1777632437 | 2.78° C | 67% | 1015.8 hPa | 0 mm | - | 0 W/m² | - |
| 1777631835 | 2.78° C | 67% | 1015.8 hPa | 0 mm | - | 0 W/m² | - |
| 1777631238 | 2.78° C | 67% | 1015.6 hPa | 0 mm | - | 0 W/m² | - |
| 1777630636 | 2.78° C | 67% | 1015.4 hPa | 0 mm | - | 0 W/m² | - |
| 1777630038 | 2.78° C | 67% | 1015.4 hPa | 0 mm | - | 0 W/m² | - |
| 1777629437 | 2.78° C | 68% | 1015.4 hPa | 0 mm | - | 0 W/m² | - |
| 1777628839 | 3.33° C | 68% | 1015.4 hPa | 0 mm | - | 0 W/m² | - |
| 1777628237 | 3.33° C | 67% | 1015.4 hPa | 0 mm | - | 0 W/m² | - |
| 1777627635 | 3.33° C | 67% | 1015.2 hPa | 0 mm | - | 0 W/m² | - |
| 1777627038 | 3.33° C | 66% | 1015.4 hPa | 0 mm | - | 0 W/m² | - |
* Rain latest hour (hover to see other rain measurements)
** Current wind speed in m/s (hover to see current wind gust speed)